Time;durP1;ratioP1;P1;durP2;ratioP2;P2;SDS_P1;SDS_P2;PMS_P1;PMS_P2;Temp;Humidity;BMP_temperature;BMP_pressure;BME280_temperature;BME280_humidity;BME280_pressure;Samples;Min_cycle;Max_cycle;Signal;HPM_P1;HPM_P2
2022/02/13 00:00:44;;;;;;;6.05;0.90;;;;;;;;;;5044022;28;20036;-70
2022/02/13 00:03:09;;;;;;;5.32;1.60;;;;;;;;;;5043874;28;20094;-70
2022/02/13 00:05:35;;;;;;;4.25;1.10;;;;;;;;;;5043788;28;20030;-70
2022/02/13 00:08:03;;;;;;;16.40;2.40;;;;;;;;;;5043892;28;20052;-70
2022/02/13 00:10:29;;;;;;;11.88;1.95;;;;;;;;;;5025857;28;20053;-69
2022/02/13 00:12:55;;;;;;;2.38;0.82;;;;;;;;;;5025895;28;20547;-69
2022/02/13 00:15:20;;;;;;;2.33;0.98;;;;;;;;;;5043773;28;20246;-69
2022/02/13 00:17:48;;;;;;;5.40;1.33;;;;;;;;;;5043566;28;20038;-69
2022/02/13 00:20:13;;;;;;;3.10;0.47;;;;;;;;;;5025746;28;20101;-69
2022/02/13 00:22:39;;;;;;;4.47;1.23;;;;;;;;;;5043511;28;20053;-69
2022/02/13 00:25:05;;;;;;;5.53;1.40;;;;;;;;;;5058891;28;20140;-69
2022/02/13 00:27:33;;;;;;;6.15;1.20;;;;;;;;;;5043478;28;20040;-69
2022/02/13 00:29:59;;;;;;;2.83;0.82;;;;;;;;;;5043443;28;20037;-70
2022/02/13 00:32:27;;;;;;;5.93;1.75;;;;;;;;;;5043399;28;20021;-69
2022/02/13 00:34:53;;;;;;;5.43;1.38;;;;;;;;;;5043443;28;20033;-69
2022/02/13 00:37:18;;;;;;;9.73;1.92;;;;;;;;;;5025252;28;20099;-69
2022/02/13 00:39:44;;;;;;;6.38;1.60;;;;;;;;;;5025506;28;20030;-70
2022/02/13 00:42:09;;;;;;;7.72;1.77;;;;;;;;;;5043337;28;20037;-70
2022/02/13 00:44:35;;;;;;;3.85;1.25;;;;;;;;;;5043313;28;20025;-69
2022/02/13 00:47:06;;;;;;;4.20;1.60;;;;;;;;;;5043394;28;20037;-69
2022/02/13 00:49:31;;;;;;;3.67;1.38;;;;;;;;;;5043021;28;20030;-69
2022/02/13 00:51:57;;;;;;;2.38;1.10;;;;;;;;;;5025242;28;20075;-69
2022/02/13 00:54:25;;;;;;;10.13;2.60;;;;;;;;;;5043061;28;20035;-70
2022/02/13 00:56:52;;;;;;;5.22;1.25;;;;;;;;;;5042898;28;20025;-69
2022/02/13 00:59:18;;;;;;;2.03;1.02;;;;;;;;;;5058207;28;20513;-69
2022/02/13 01:01:43;;;;;;;3.40;1.30;;;;;;;;;;5042798;28;20030;-69
2022/02/13 01:04:09;;;;;;;7.40;1.83;;;;;;;;;;5042909;28;20033;-69
2022/02/13 01:06:34;;;;;;;2.45;1.15;;;;;;;;;;5043185;28;20017;-69
2022/02/13 01:09:03;;;;;;;2.28;1.17;;;;;;;;;;5025119;28;20029;-69
2022/02/13 01:11:34;;;;;;;3.60;0.95;;;;;;;;;;5043206;28;20030;-69
2022/02/13 01:13:59;;;;;;;6.68;2.28;;;;;;;;;;5024938;28;20371;-70
2022/02/13 01:16:27;;;;;;;13.50;1.25;;;;;;;;;;5025177;28;20036;-69
2022/02/13 01:18:54;;;;;;;9.05;1.63;;;;;;;;;;5043194;28;20105;-70
2022/02/13 01:21:22;;;;;;;8.65;2.45;;;;;;;;;;5025794;28;20040;-70
2022/02/13 01:23:48;;;;;;;1.40;0.88;;;;;;;;;;5043046;28;20033;-69
2022/02/13 01:26:19;;;;;;;2.22;0.90;;;;;;;;;;5042826;28;20029;-69
2022/02/13 01:28:50;;;;;;;7.90;1.08;;;;;;;;;;5025197;28;20476;-69
2022/02/13 01:31:18;;;;;;;5.05;1.45;;;;;;;;;;5043079;28;20397;-69
2022/02/13 01:33:47;;;;;;;4.97;1.02;;;;;;;;;;5042508;28;20056;-69
2022/02/13 01:36:13;;;;;;;3.85;0.75;;;;;;;;;;5042735;28;20033;-70
2022/02/13 01:38:41;;;;;;;4.50;1.15;;;;;;;;;;5042750;28;20048;-69
2022/02/13 01:41:07;;;;;;;8.75;2.08;;;;;;;;;;5024740;28;20346;-69
2022/02/13 01:43:32;;;;;;;3.13;1.02;;;;;;;;;;5042775;28;20032;-69
2022/02/13 01:45:58;;;;;;;7.93;1.77;;;;;;;;;;5042481;28;20037;-70
2022/02/13 01:48:24;;;;;;;3.13;0.85;;;;;;;;;;5042865;28;20030;-69
2022/02/13 01:50:50;;;;;;;3.17;1.00;;;;;;;;;;5042588;28;20033;-69
2022/02/13 01:53:16;;;;;;;3.33;0.90;;;;;;;;;;5042756;28;20033;-70
2022/02/13 01:55:50;;;;;;;4.03;1.02;;;;;;;;;;5042572;28;20529;-70
2022/02/13 01:58:16;;;;;;;8.45;1.40;;;;;;;;;;5025029;28;20039;-71
2022/02/13 02:00:44;;;;;;;4.32;1.48;;;;;;;;;;5024707;28;20040;-70
2022/02/13 02:03:09;;;;;;;4.53;1.40;;;;;;;;;;5042471;28;20109;-69
2022/02/13 02:05:36;;;;;;;5.03;1.45;;;;;;;;;;5042527;28;20053;-69
2022/02/13 02:08:04;;;;;;;4.95;1.88;;;;;;;;;;5024697;28;20033;-70
2022/02/13 02:10:31;;;;;;;5.05;1.27;;;;;;;;;;5024656;28;20109;-69
2022/02/13 02:12:59;;;;;;;4.38;1.52;;;;;;;;;;5044210;28;20524;-69
2022/02/13 02:15:27;;;;;;;5.35;1.08;;;;;;;;;;5045794;28;20037;-69
2022/02/13 02:17:53;;;;;;;4.60;1.17;;;;;;;;;;5045792;28;20080;-70
2022/02/13 02:20:18;;;;;;;5.05;0.75;;;;;;;;;;5061235;28;20330;-70
2022/02/13 02:23:03;;;;;;;6.45;1.30;;;;;;;;;;5046009;28;20029;-70
2022/02/13 02:25:28;;;;;;;3.42;1.25;;;;;;;;;;5046046;28;20550;-68
2022/02/13 02:27:54;;;;;;;5.07;1.20;;;;;;;;;;5027949;28;20258;-69
2022/02/13 02:30:19;;;;;;;5.70;1.58;;;;;;;;;;5027911;28;20101;-69
2022/02/13 02:32:45;;;;;;;4.70;1.77;;;;;;;;;;5045760;28;20022;-70
2022/02/13 02:35:10;;;;;;;4.28;1.55;;;;;;;;;;5045661;28;20243;-70
2022/02/13 02:37:38;;;;;;;4.60;1.40;;;;;;;;;;5060769;28;20045;-69
2022/02/13 02:40:06;;;;;;;4.40;1.50;;;;;;;;;;5045505;28;20034;-69
2022/02/13 02:42:31;;;;;;;4.25;1.15;;;;;;;;;;5027266;28;20064;-70
2022/02/13 02:44:57;;;;;;;2.03;1.08;;;;;;;;;;5045420;28;20029;-69
2022/02/13 02:47:25;;;;;;;5.82;1.55;;;;;;;;;;5045748;28;20029;-69
2022/02/13 02:49:51;;;;;;;3.45;1.00;;;;;;;;;;5045338;28;20029;-69
2022/02/13 02:52:18;;;;;;;7.22;1.90;;;;;;;;;;5060903;28;20032;-69
2022/02/13 02:54:46;;;;;;;4.10;0.98;;;;;;;;;;5045405;28;20040;-69
2022/02/13 02:57:15;;;;;;;7.07;1.00;;;;;;;;;;5027475;28;20037;-70
2022/02/13 02:59:40;;;;;;;5.65;1.35;;;;;;;;;;5027345;28;20030;-70
2022/02/13 03:02:06;;;;;;;4.70;1.63;;;;;;;;;;5044719;28;20094;-69
2022/02/13 03:04:31;;;;;;;6.43;1.65;;;;;;;;;;5044884;28;20045;-69
2022/02/13 03:06:57;;;;;;;10.23;2.15;;;;;;;;;;5060183;28;20032;-69
2022/02/13 03:09:25;;;;;;;5.07;2.45;;;;;;;;;;5044917;28;20033;-69
2022/02/13 03:11:50;;;;;;;8.40;2.10;;;;;;;;;;5045344;28;20033;-69
2022/02/13 03:14:21;;;;;;;20.73;2.30;;;;;;;;;;5044830;28;20036;-69
2022/02/13 03:16:46;;;;;;;8.30;2.60;;;;;;;;;;5045313;28;20093;-69
2022/02/13 03:19:15;;;;;;;13.20;1.52;;;;;;;;;;5044864;28;20049;-68
2022/02/13 03:21:40;;;;;;;5.80;1.48;;;;;;;;;;5044737;28;20055;-69
2022/02/13 03:24:08;;;;;;;9.30;1.65;;;;;;;;;;5059280;28;20065;-68
2022/02/13 03:26:34;;;;;;;10.45;2.30;;;;;;;;;;5044663;28;20033;-69
2022/02/13 03:29:02;;;;;;;5.97;1.83;;;;;;;;;;5044567;28;20049;-69
2022/02/13 03:31:27;;;;;;;3.38;1.60;;;;;;;;;;5044739;28;20060;-68
2022/02/13 03:33:54;;;;;;;5.38;1.48;;;;;;;;;;5044207;28;20029;-68
2022/02/13 03:36:19;;;;;;;6.00;1.52;;;;;;;;;;5044245;28;20029;-69
2022/02/13 03:38:45;;;;;;;3.70;1.65;;;;;;;;;;5044332;28;20457;-69
2022/02/13 03:41:11;;;;;;;10.45;1.85;;;;;;;;;;5044223;28;20473;-69
2022/02/13 03:43:37;;;;;;;7.45;1.15;;;;;;;;;;5059588;28;20085;-69
2022/02/13 03:46:03;;;;;;;9.75;2.40;;;;;;;;;;5044468;28;20033;-69
2022/02/13 03:48:28;;;;;;;7.28;1.73;;;;;;;;;;5059472;28;20035;-70
2022/02/13 03:50:54;;;;;;;2.53;1.08;;;;;;;;;;5043957;28;20032;-69
2022/02/13 03:53:19;;;;;;;2.67;1.25;;;;;;;;;;5044210;28;20034;-69
2022/02/13 03:55:47;;;;;;;7.35;1.60;;;;;;;;;;5043838;28;20528;-69
2022/02/13 03:58:17;;;;;;;5.00;1.90;;;;;;;;;;5044197;28;20025;-69
2022/02/13 04:00:49;;;;;;;5.38;1.90;;;;;;;;;;5043721;28;20036;-69
2022/02/13 04:03:17;;;;;;;9.25;1.77;;;;;;;;;;5043916;28;20033;-69
2022/02/13 04:05:45;;;;;;;5.53;2.05;;;;;;;;;;5025640;28;20063;-69
2022/02/13 04:08:10;;;;;;;10.50;1.48;;;;;;;;;;5026151;28;20373;-69
2022/02/13 04:10:38;;;;;;;3.22;1.63;;;;;;;;;;5043824;28;20097;-69
2022/02/13 04:13:09;;;;;;;4.07;1.00;;;;;;;;;;5043891;28;20039;-69
2022/02/13 04:15:34;;;;;;;7.43;1.70;;;;;;;;;;5058969;28;20037;-69
2022/02/13 04:18:00;;;;;;;7.38;1.58;;;;;;;;;;5043522;28;20064;-69
2022/02/13 04:20:25;;;;;;;5.07;1.27;;;;;;;;;;5042957;28;20040;-69
2022/02/13 04:22:51;;;;;;;8.20;2.22;;;;;;;;;;5042941;28;20433;-68
2022/02/13 04:25:16;;;;;;;7.40;1.98;;;;;;;;;;5042921;28;20064;-69
2022/02/13 04:27:42;;;;;;;3.38;1.25;;;;;;;;;;5025766;28;20140;-69
2022/02/13 04:30:08;;;;;;;5.70;1.83;;;;;;;;;;5043513;28;20053;-69
2022/02/13 04:32:34;;;;;;;6.90;1.48;;;;;;;;;;5042366;28;20029;-69
2022/02/13 04:35:02;;;;;;;4.00;0.93;;;;;;;;;;5041875;28;20112;-69
2022/02/13 04:37:27;;;;;;;7.28;1.98;;;;;;;;;;5057824;28;20037;-69
2022/02/13 04:39:53;;;;;;;7.55;1.70;;;;;;;;;;5043081;28;20026;-69
2022/02/13 04:42:18;;;;;;;7.80;1.45;;;;;;;;;;5042926;28;20370;-69
2022/02/13 04:44:44;;;;;;;4.78;1.55;;;;;;;;;;5042822;28;20044;-69
2022/02/13 04:47:10;;;;;;;2.85;1.08;;;;;;;;;;5043282;28;20292;-69
2022/02/13 04:49:36;;;;;;;3.45;0.93;;;;;;;;;;5042817;28;20120;-69
2022/02/13 04:52:02;;;;;;;6.72;2.92;;;;;;;;;;5043037;28;20041;-70
2022/02/13 04:54:30;;;;;;;8.95;2.42;;;;;;;;;;5043140;28;20034;-69
2022/02/13 04:56:55;;;;;;;7.78;2.35;;;;;;;;;;5043189;28;20033;-69
2022/02/13 04:59:21;;;;;;;3.28;1.55;;;;;;;;;;5042572;28;20053;-70
2022/02/13 05:01:49;;;;;;;5.60;2.35;;;;;;;;;;5025255;28;20265;-69
2022/02/13 05:04:14;;;;;;;2.92;1.73;;;;;;;;;;5042745;28;20477;-69
2022/02/13 05:06:40;;;;;;;5.30;1.35;;;;;;;;;;5042806;28;20044;-69
2022/02/13 05:09:08;;;;;;;7.68;2.10;;;;;;;;;;5058090;28;20021;-69
2022/02/13 05:11:34;;;;;;;7.38;2.25;;;;;;;;;;5025229;28;20163;-69
2022/02/13 05:14:02;;;;;;;8.27;2.17;;;;;;;;;;5042760;28;20060;-69
2022/02/13 05:16:30;;;;;;;5.85;1.60;;;;;;;;;;5043058;28;20042;-69
2022/02/13 05:18:55;;;;;;;2.75;1.48;;;;;;;;;;5043004;28;20089;-69
2022/02/13 05:21:26;;;;;;;4.72;1.35;;;;;;;;;;5025276;28;20052;-69
2022/02/13 05:23:52;;;;;;;4.82;1.88;;;;;;;;;;5042721;28;20489;-69
2022/02/13 05:26:20;;;;;;;5.05;2.15;;;;;;;;;;5025086;28;20035;-69
2022/02/13 05:28:54;;;;;;;12.13;2.03;;;;;;;;;;5042831;28;20063;-69
2022/02/13 05:31:26;;;;;;;9.48;2.53;;;;;;;;;;5024947;28;20064;-68
2022/02/13 05:33:51;;;;;;;1.95;1.10;;;;;;;;;;5025027;28;20037;-68
2022/02/13 05:36:25;;;;;;;1.65;1.08;;;;;;;;;;5042920;28;20036;-69
2022/02/13 05:38:51;;;;;;;3.15;1.23;;;;;;;;;;5042919;28;20033;-69
2022/02/13 05:41:16;;;;;;;6.82;1.70;;;;;;;;;;5043049;28;20453;-70
2022/02/13 05:43:42;;;;;;;5.65;1.80;;;;;;;;;;5042751;28;20064;-69
2022/02/13 05:46:07;;;;;;;5.57;1.55;;;;;;;;;;5043063;28;20353;-70
2022/02/13 05:48:40;;;;;;;1.70;1.05;;;;;;;;;;5046715;28;20030;-69
2022/02/13 05:51:05;;;;;;;7.75;2.22;;;;;;;;;;5046525;28;20022;-69
2022/02/13 05:53:34;;;;;;;3.88;1.45;;;;;;;;;;5028489;28;20033;-69
2022/02/13 05:55:59;;;;;;;9.05;2.38;;;;;;;;;;5046558;28;20060;-69
2022/02/13 05:58:24;;;;;;;6.00;1.67;;;;;;;;;;5046719;28;20120;-69
2022/02/13 06:00:53;;;;;;;8.65;2.65;;;;;;;;;;5046255;28;20026;-69
2022/02/13 06:03:18;;;;;;;7.95;2.20;;;;;;;;;;5046429;28;20029;-68
2022/02/13 06:05:47;;;;;;;11.38;2.92;;;;;;;;;;5046199;28;20091;-69
2022/02/13 06:08:13;;;;;;;6.43;2.67;;;;;;;;;;5046447;28;20030;-69
2022/02/13 06:10:40;;;;;;;6.78;1.63;;;;;;;;;;5046368;28;20083;-69
2022/02/13 06:13:06;;;;;;;4.55;1.80;;;;;;;;;;5046096;28;20063;-69
2022/02/13 06:15:36;;;;;;;1.98;1.02;;;;;;;;;;5028129;28;20115;-69
2022/02/13 06:18:03;;;;;;;10.55;2.42;;;;;;;;;;5028215;28;20061;-69
2022/02/13 06:20:31;;;;;;;8.55;2.70;;;;;;;;;;5028020;28;20094;-69
2022/02/13 06:22:59;;;;;;;8.43;2.47;;;;;;;;;;5045997;28;20041;-69
2022/02/13 06:25:25;;;;;;;10.25;2.55;;;;;;;;;;5028097;28;20068;-69
2022/02/13 06:27:50;;;;;;;4.35;1.88;;;;;;;;;;5028083;28;20595;-69
2022/02/13 06:30:16;;;;;;;9.30;2.78;;;;;;;;;;5045568;28;20045;-69
2022/02/13 06:32:41;;;;;;;13.43;2.90;;;;;;;;;;5027916;28;20049;-69
2022/02/13 06:35:09;;;;;;;7.65;2.13;;;;;;;;;;5028010;28;20033;-69
2022/02/13 06:37:37;;;;;;;9.75;3.05;;;;;;;;;;5045294;28;20050;-69
2022/02/13 06:40:06;;;;;;;4.35;2.13;;;;;;;;;;5027670;28;20119;-70
2022/02/13 06:42:32;;;;;;;8.95;2.83;;;;;;;;;;5045451;28;20037;-69
2022/02/13 06:44:57;;;;;;;2.10;1.30;;;;;;;;;;5028102;28;20026;-69
2022/02/13 06:47:23;;;;;;;5.65;2.20;;;;;;;;;;5045915;28;20029;-69
2022/02/13 06:49:49;;;;;;;6.60;1.60;;;;;;;;;;5045753;28;20465;-69
2022/02/13 06:52:14;;;;;;;6.90;2.13;;;;;;;;;;5045704;28;20033;-69
2022/02/13 06:54:40;;;;;;;4.22;1.92;;;;;;;;;;5045350;28;20033;-70
2022/02/13 06:57:05;;;;;;;5.57;1.85;;;;;;;;;;5045553;28;20056;-69
2022/02/13 06:59:31;;;;;;;8.35;2.65;;;;;;;;;;5044129;28;20131;-70
2022/02/13 07:01:58;;;;;;;8.88;2.90;;;;;;;;;;5045199;28;20115;-69
2022/02/13 07:04:24;;;;;;;11.63;3.42;;;;;;;;;;5044988;28;20034;-69
2022/02/13 07:06:52;;;;;;;7.18;2.35;;;;;;;;;;5044927;28;20545;-69
2022/02/13 07:09:18;;;;;;;4.57;2.10;;;;;;;;;;5044727;28;20040;-68
2022/02/13 07:11:44;;;;;;;6.07;2.10;;;;;;;;;;5027037;28;20128;-69
2022/02/13 07:14:11;;;;;;;7.22;2.17;;;;;;;;;;5059935;28;20025;-69
2022/02/13 07:16:37;;;;;;;4.53;2.22;;;;;;;;;;5044811;28;20060;-69
2022/02/13 07:19:02;;;;;;;3.53;1.98;;;;;;;;;;5044853;28;20056;-69
2022/02/13 07:21:30;;;;;;;10.38;1.80;;;;;;;;;;5026996;28;20030;-70
2022/02/13 07:23:55;;;;;;;8.48;2.10;;;;;;;;;;5044458;28;20076;-69
2022/02/13 07:26:23;;;;;;;5.18;2.47;;;;;;;;;;5026444;28;20030;-69
2022/02/13 07:29:01;;;;;;;5.80;2.60;;;;;;;;;;5044505;28;20030;-69
2022/02/13 07:31:30;;;;;;;7.20;2.67;;;;;;;;;;5044550;28;20026;-70
2022/02/13 07:33:56;;;;;;;7.45;2.47;;;;;;;;;;5026425;28;20030;-69
2022/02/13 07:36:23;;;;;;;4.45;2.05;;;;;;;;;;5026475;28;20513;-70
2022/02/13 07:38:48;;;;;;;4.75;1.98;;;;;;;;;;5044181;28;20033;-69
2022/02/13 07:41:17;;;;;;;5.20;2.03;;;;;;;;;;5044497;28;20025;-69
2022/02/13 07:43:42;;;;;;;7.15;1.90;;;;;;;;;;5044063;28;20104;-69
2022/02/13 07:46:08;;;;;;;13.88;2.67;;;;;;;;;;5043655;28;20071;-68
2022/02/13 07:48:33;;;;;;;5.10;1.80;;;;;;;;;;5026238;28;20034;-68
2022/02/13 07:51:02;;;;;;;5.65;2.53;;;;;;;;;;5025992;28;20124;-69
2022/02/13 07:53:28;;;;;;;4.43;2.35;;;;;;;;;;5026375;28;20585;-69
2022/02/13 07:55:54;;;;;;;7.82;2.45;;;;;;;;;;5044172;28;20049;-69
2022/02/13 07:58:19;;;;;;;10.93;2.20;;;;;;;;;;5044019;28;20036;-69
2022/02/13 08:00:46;;;;;;;3.63;1.50;;;;;;;;;;5043814;28;20045;-68
2022/02/13 08:03:16;;;;;;;2.42;1.30;;;;;;;;;;5043602;28;20071;-69
2022/02/13 08:05:42;;;;;;;5.53;1.83;;;;;;;;;;5025946;28;20541;-69
2022/02/13 08:08:07;;;;;;;8.23;3.10;;;;;;;;;;5025936;28;20047;-69
2022/02/13 08:10:33;;;;;;;5.35;2.13;;;;;;;;;;5025628;28;20073;-68
2022/02/13 08:12:58;;;;;;;10.48;2.15;;;;;;;;;;5043974;28;20033;-69
2022/02/13 08:15:24;;;;;;;6.10;1.92;;;;;;;;;;5043620;28;20060;-69
2022/02/13 08:17:50;;;;;;;5.45;1.92;;;;;;;;;;5044032;28;20357;-68
2022/02/13 08:20:15;;;;;;;3.28;1.52;;;;;;;;;;5043598;28;20049;-69
2022/02/13 08:22:42;;;;;;;4.75;2.03;;;;;;;;;;5043604;28;20455;-70
2022/02/13 08:25:09;;;;;;;6.60;2.08;;;;;;;;;;5043521;28;20033;-69
2022/02/13 08:27:34;;;;;;;3.42;1.42;;;;;;;;;;5025406;28;20029;-69
2022/02/13 08:30:02;;;;;;;6.57;2.22;;;;;;;;;;5043379;28;20084;-69
2022/02/13 08:32:33;;;;;;;4.38;1.67;;;;;;;;;;5024991;28;20037;-70
2022/02/13 08:34:58;;;;;;;5.03;2.47;;;;;;;;;;5042726;28;20037;-69
2022/02/13 08:37:24;;;;;;;5.32;1.98;;;;;;;;;;5025277;28;20046;-69
2022/02/13 08:39:52;;;;;;;4.57;2.40;;;;;;;;;;5043115;28;20473;-69
2022/02/13 08:42:18;;;;;;;1.60;1.20;;;;;;;;;;5058273;28;20441;-69
2022/02/13 08:44:43;;;;;;;3.95;1.52;;;;;;;;;;5043033;28;20033;-68
2022/02/13 08:47:14;;;;;;;6.95;2.83;;;;;;;;;;5025471;28;20492;-69
2022/02/13 08:49:41;;;;;;;4.68;1.95;;;;;;;;;;5025340;28;20093;-69
2022/02/13 08:52:08;;;;;;;3.40;1.98;;;;;;;;;;5043312;28;20057;-69
2022/02/13 08:54:34;;;;;;;6.35;2.17;;;;;;;;;;5042051;28;20040;-69
2022/02/13 08:57:02;;;;;;;9.57;4.40;;;;;;;;;;5042591;28;20029;-69
2022/02/13 08:59:27;;;;;;;10.55;2.03;;;;;;;;;;5025061;28;20068;-69
2022/02/13 09:01:52;;;;;;;5.25;2.28;;;;;;;;;;5042457;28;20079;-70
2022/02/13 09:04:21;;;;;;;9.15;2.65;;;;;;;;;;5042658;28;20454;-69
2022/02/13 09:06:46;;;;;;;5.15;2.10;;;;;;;;;;5024759;28;20038;-69
2022/02/13 09:09:12;;;;;;;4.45;1.92;;;;;;;;;;5042571;28;20068;-69
2022/02/13 09:11:38;;;;;;;4.68;2.05;;;;;;;;;;5042396;28;20477;-69
2022/02/13 09:14:08;;;;;;;8.52;1.90;;;;;;;;;;5042422;28;20117;-69
2022/02/13 09:16:36;;;;;;;4.20;2.28;;;;;;;;;;5042952;28;20369;-69
2022/02/13 09:19:08;;;;;;;5.57;2.80;;;;;;;;;;5056645;28;20041;-69
2022/02/13 09:21:34;;;;;;;8.48;3.00;;;;;;;;;;5044250;28;20044;-69
2022/02/13 09:24:00;;;;;;;7.93;2.83;;;;;;;;;;5046959;28;20025;-69
2022/02/13 09:26:28;;;;;;;8.93;2.70;;;;;;;;;;5047187;28;20112;-70
2022/02/13 09:28:56;;;;;;;3.53;1.67;;;;;;;;;;5047108;28;20025;-70
2022/02/13 09:31:26;;;;;;;7.22;2.13;;;;;;;;;;5047434;28;20036;-70
2022/02/13 09:33:55;;;;;;;7.22;3.30;;;;;;;;;;5045335;28;20271;-69
2022/02/13 09:36:23;;;;;;;4.82;2.20;;;;;;;;;;5027735;28;20025;-70
2022/02/13 09:38:54;;;;;;;14.68;6.57;;;;;;;;;;5046296;28;20033;-70
2022/02/13 09:41:20;;;;;;;7.93;4.15;;;;;;;;;;5028835;28;20097;-69
2022/02/13 09:43:49;;;;;;;4.85;3.13;;;;;;;;;;5045799;28;20329;-69
2022/02/13 09:46:16;;;;;;;9.88;4.28;;;;;;;;;;5029126;28;20041;-71
2022/02/13 09:48:45;;;;;;;5.60;3.45;;;;;;;;;;5046917;28;20033;-69
2022/02/13 09:51:14;;;;;;;5.53;3.55;;;;;;;;;;5045876;28;20057;-69
2022/02/13 09:53:39;;;;;;;2.65;1.65;;;;;;;;;;5046752;28;20030;-69
2022/02/13 09:56:17;;;;;;;6.70;3.22;;;;;;;;;;5046621;28;20038;-70
2022/02/13 09:58:45;;;;;;;8.63;2.60;;;;;;;;;;5028408;28;20026;-69
2022/02/13 10:01:17;;;;;;;8.63;4.80;;;;;;;;;;5046714;28;20029;-69
2022/02/13 10:03:52;;;;;;;11.10;4.97;;;;;;;;;;5061831;28;20093;-69
2022/02/13 10:06:21;;;;;;;8.60;2.45;;;;;;;;;;5046705;28;20057;-69
2022/02/13 10:08:52;;;;;;;6.60;3.38;;;;;;;;;;5046259;28;20022;-69
2022/02/13 10:11:29;;;;;;;8.52;4.20;;;;;;;;;;5044683;28;20026;-69
2022/02/13 10:14:07;;;;;;;7.72;3.63;;;;;;;;;;5044409;28;20491;-68
2022/02/13 10:16:38;;;;;;;11.93;4.03;;;;;;;;;;5045729;28;20072;-69
2022/02/13 10:19:22;;;;;;;7.13;4.55;;;;;;;;;;5045850;28;20029;-69
2022/02/13 10:21:58;;;;;;;3.72;2.05;;;;;;;;;;5045859;28;20116;-69
2022/02/13 10:24:23;;;;;;;2.75;2.00;;;;;;;;;;5045315;28;20039;-69
2022/02/13 10:27:14;;;;;;;7.47;2.60;;;;;;;;;;5027454;28;20097;-69
2022/02/13 10:29:45;;;;;;;8.50;3.00;;;;;;;;;;5045384;28;20036;-69
2022/02/13 10:32:15;;;;;;;7.15;3.45;;;;;;;;;;5044836;28;20099;-69
2022/02/13 10:35:06;;;;;;;5.50;2.30;;;;;;;;;;5044799;28;20037;-69
2022/02/13 10:37:46;;;;;;;3.92;2.03;;;;;;;;;;5045293;28;20075;-69
2022/02/13 10:40:20;;;;;;;3.30;2.08;;;;;;;;;;5027126;28;20056;-68
2022/02/13 10:42:47;;;;;;;6.32;3.22;;;;;;;;;;5026861;28;20025;-69
2022/02/13 10:45:28;;;;;;;6.22;3.22;;;;;;;;;;5045206;28;20063;-69
2022/02/13 10:47:59;;;;;;;7.30;3.17;;;;;;;;;;5045359;28;20044;-69
2022/02/13 10:50:31;;;;;;;5.80;3.53;;;;;;;;;;5044900;28;20036;-71
2022/02/13 10:52:59;;;;;;;10.55;4.47;;;;;;;;;;5044996;28;20087;-69
2022/02/13 10:55:26;;;;;;;6.45;2.58;;;;;;;;;;5026907;28;20029;-69
2022/02/13 10:57:52;;;;;;;14.30;3.58;;;;;;;;;;5026739;28;20036;-70
2022/02/13 11:00:18;;;;;;;9.52;4.18;;;;;;;;;;5044766;28;20033;-69
2022/02/13 11:02:48;;;;;;;11.15;3.67;;;;;;;;;;5027090;28;20051;-69
2022/02/13 11:05:19;;;;;;;3.35;1.83;;;;;;;;;;5044920;28;20033;-68
2022/02/13 11:07:51;;;;;;;10.77;2.50;;;;;;;;;;5045013;28;20025;-69
2022/02/13 11:10:24;;;;;;;7.97;4.18;;;;;;;;;;5044638;28;20029;-68
2022/02/13 11:12:53;;;;;;;16.27;4.20;;;;;;;;;;5044645;28;20025;-69
2022/02/13 11:15:20;;;;;;;6.85;3.05;;;;;;;;;;5044631;28;20034;-69
2022/02/13 11:17:51;;;;;;;9.18;4.35;;;;;;;;;;5044575;28;20501;-69
2022/02/13 11:20:18;;;;;;;8.82;3.63;;;;;;;;;;5026378;28;20499;-68
2022/02/13 11:22:47;;;;;;;5.18;2.92;;;;;;;;;;5042926;28;20089;-69
2022/02/13 11:25:13;;;;;;;9.95;4.15;;;;;;;;;;5026102;28;20034;-69
2022/02/13 11:28:00;;;;;;;6.55;4.78;;;;;;;;;;5043454;28;20057;-69
2022/02/13 11:30:45;;;;;;;12.43;6.72;;;;;;;;;;5025933;28;20033;-69
2022/02/13 11:33:38;;;;;;;20.85;12.02;;;;;;;;;;5026229;28;20041;-69
2022/02/13 11:36:04;;;;;;;18.70;8.45;;;;;;;;;;5044507;28;20025;-69
2022/02/13 11:38:39;;;;;;;17.02;7.88;;;;;;;;;;5022620;28;20046;-69
2022/02/13 11:41:08;;;;;;;16.33;7.55;;;;;;;;;;5024351;28;20034;-69
2022/02/13 11:44:06;;;;;;;34.10;16.92;;;;;;;;;;5024043;28;20034;-68
2022/02/13 11:46:40;;;;;;;14.55;6.28;;;;;;;;;;5000912;28;20092;-69
2022/02/13 11:49:11;;;;;;;7.25;4.30;;;;;;;;;;5024309;28;20056;-69
2022/02/13 11:51:45;;;;;;;13.18;5.18;;;;;;;;;;5022934;28;20033;-69
2022/02/13 11:54:43;;;;;;;9.85;4.78;;;;;;;;;;5024103;28;20057;-69
2022/02/13 11:57:15;;;;;;;11.35;6.38;;;;;;;;;;5024071;28;20121;-69
2022/02/13 12:00:07;;;;;;;12.35;7.18;;;;;;;;;;5023211;28;20026;-70
2022/02/13 12:02:41;;;;;;;24.02;13.57;;;;;;;;;;5024391;28;20037;-70
2022/02/13 12:05:06;;;;;;;36.67;18.80;;;;;;;;;;5023430;28;20037;-69
2022/02/13 12:07:37;;;;;;;24.63;14.63;;;;;;;;;;5022624;28;20037;-69
2022/02/13 12:10:09;;;;;;;7.68;3.10;;;;;;;;;;5022986;28;20026;-69
2022/02/13 12:12:35;;;;;;;18.40;8.32;;;;;;;;;;5023530;28;20292;-69
2022/02/13 12:15:01;;;;;;;10.32;5.03;;;;;;;;;;5022696;28;20022;-69
2022/02/13 12:17:29;;;;;;;8.90;5.50;;;;;;;;;;5023598;28;20108;-69
2022/02/13 12:20:04;;;;;;;10.77;5.90;;;;;;;;;;5023487;28;20045;-69
2022/02/13 12:22:30;;;;;;;14.25;4.95;;;;;;;;;;5023117;28;20089;-68
2022/02/13 12:24:58;;;;;;;8.55;3.95;;;;;;;;;;5023409;28;20033;-69
2022/02/13 12:27:26;;;;;;;7.22;3.03;;;;;;;;;;5024367;28;20055;-70
2022/02/13 12:29:57;;;;;;;8.80;3.95;;;;;;;;;;5021564;28;20045;-69
2022/02/13 12:32:31;;;;;;;6.00;3.35;;;;;;;;;;5022550;28;20060;-70
2022/02/13 12:34:56;;;;;;;;;;;;;;;;;;5023811;28;20029;-70
2022/02/13 12:37:47;;;;;;;4.60;2.65;;;;;;;;;;5031077;28;19921;-69
2022/02/13 12:40:25;;;;;;;6.25;3.33;;;;;;;;;;5042820;28;20109;-69
2022/02/13 12:42:56;;;;;;;7.05;3.35;;;;;;;;;;5043296;28;20033;-69
2022/02/13 12:45:28;;;;;;;6.90;2.85;;;;;;;;;;5042785;28;20037;-69
2022/02/13 12:48:05;;;;;;;12.02;4.72;;;;;;;;;;5042773;28;20035;-69
2022/02/13 12:50:44;;;;;;;8.25;4.13;;;;;;;;;;5025652;28;20025;-69
2022/02/13 12:53:31;;;;;;;6.13;3.75;;;;;;;;;;5042505;28;20276;-69
2022/02/13 12:56:07;;;;;;;8.27;3.25;;;;;;;;;;5042064;28;20056;-69
2022/02/13 12:58:37;;;;;;;3.90;2.15;;;;;;;;;;5025949;28;20034;-68
2022/02/13 13:01:05;;;;;;;9.38;3.75;;;;;;;;;;5042652;28;20419;-70
2022/02/13 13:03:32;;;;;;;5.50;2.85;;;;;;;;;;5042791;28;20026;-69
2022/02/13 13:06:06;;;;;;;6.13;3.38;;;;;;;;;;5041994;28;20047;-67
2022/02/13 13:08:45;;;;;;;5.97;3.53;;;;;;;;;;5041650;28;20032;-69
2022/02/13 13:11:28;;;;;;;6.90;3.72;;;;;;;;;;5024009;28;20029;-68
2022/02/13 13:14:07;;;;;;;7.78;3.85;;;;;;;;;;5042898;28;20095;-70
2022/02/13 13:16:34;;;;;;;6.50;2.80;;;;;;;;;;5024320;28;20044;-70
2022/02/13 13:19:00;;;;;;;10.50;5.07;;;;;;;;;;5042300;28;20036;-70
2022/02/13 13:21:43;;;;;;;7.10;3.75;;;;;;;;;;5042691;28;20478;-70
2022/02/13 13:24:15;;;;;;;11.80;5.13;;;;;;;;;;5042269;28;20029;-70
2022/02/13 13:26:47;;;;;;;30.40;5.95;;;;;;;;;;5024237;28;20143;-70
2022/02/13 13:29:20;;;;;;;14.57;5.10;;;;;;;;;;5024034;28;20038;-70
2022/02/13 13:32:05;;;;;;;8.15;3.60;;;;;;;;;;5024962;28;20036;-70
2022/02/13 13:34:43;;;;;;;6.88;2.97;;;;;;;;;;5041968;28;20041;-69
2022/02/13 13:37:36;;;;;;;9.40;3.70;;;;;;;;;;5024567;28;20094;-69
2022/02/13 13:40:23;;;;;;;5.35;2.63;;;;;;;;;;5043002;28;20125;-70
2022/02/13 13:43:03;;;;;;;4.50;2.92;;;;;;;;;;5042304;28;20029;-70
2022/02/13 13:45:39;;;;;;;7.53;2.63;;;;;;;;;;5042549;28;20033;-70
2022/02/13 13:48:20;;;;;;;3.92;2.67;;;;;;;;;;5042900;28;20032;-69
2022/02/13 13:50:53;;;;;;;13.95;5.18;;;;;;;;;;5042391;28;20025;-70
2022/02/13 13:53:25;;;;;;;8.70;3.70;;;;;;;;;;5042660;28;20040;-70
2022/02/13 13:55:56;;;;;;;5.93;2.45;;;;;;;;;;5057686;28;20034;-69
2022/02/13 13:58:26;;;;;;;8.43;3.60;;;;;;;;;;5042390;28;20581;-69
2022/02/13 14:00:59;;;;;;;8.43;3.28;;;;;;;;;;5042235;28;20048;-69
2022/02/13 14:03:26;;;;;;;9.27;3.47;;;;;;;;;;5057716;28;20021;-69
2022/02/13 14:06:02;;;;;;;4.72;2.47;;;;;;;;;;5042426;28;20106;-70
2022/02/13 14:08:30;;;;;;;6.40;3.20;;;;;;;;;;5045007;28;20030;-70
2022/02/13 14:10:58;;;;;;;18.23;4.78;;;;;;;;;;5045968;28;20032;-70
2022/02/13 14:13:26;;;;;;;6.28;3.33;;;;;;;;;;5046056;28;20040;-71
2022/02/13 14:15:54;;;;;;;7.13;2.92;;;;;;;;;;5028141;28;20029;-70
2022/02/13 14:18:22;;;;;;;7.15;2.33;;;;;;;;;;5045805;28;20112;-70
2022/02/13 14:20:57;;;;;;;6.57;3.30;;;;;;;;;;5045768;28;20033;-70
2022/02/13 14:23:27;;;;;;;8.48;3.13;;;;;;;;;;5027863;28;20033;-70
2022/02/13 14:25:56;;;;;;;4.70;1.75;;;;;;;;;;5045561;28;20183;-70
2022/02/13 14:28:22;;;;;;;4.68;2.90;;;;;;;;;;5045647;28;20025;-70
2022/02/13 14:30:51;;;;;;;4.95;2.97;;;;;;;;;;5027690;28;20128;-70
2022/02/13 14:33:17;;;;;;;2.75;1.48;;;;;;;;;;5045580;28;20034;-70
2022/02/13 14:35:47;;;;;;;8.68;2.95;;;;;;;;;;5045194;28;20040;-70
2022/02/13 14:38:20;;;;;;;8.23;3.58;;;;;;;;;;5024211;28;20061;-70
2022/02/13 14:40:49;;;;;;;10.18;3.83;;;;;;;;;;5025590;28;20026;-70
2022/02/13 14:43:18;;;;;;;9.52;4.68;;;;;;;;;;5025457;28;20026;-70
2022/02/13 14:45:47;;;;;;;8.40;3.20;;;;;;;;;;5025416;28;20041;-70
2022/02/13 14:48:16;;;;;;;4.38;2.75;;;;;;;;;;5024130;28;20502;-70
2022/02/13 14:50:48;;;;;;;4.50;2.78;;;;;;;;;;5025256;28;20046;-70